Sines, Portugal

12:30 PM WEST on April 26, 2015 (GMT +0100)
Sines - ZIL2 | | Change Station
CLOSE
Current Station
Personal Weather Station
Location: Sines, SET�BAL
Elevation: 167 ft
Nearby Weather Stations

Elev 167 ft 37.96 °N, 8.85 °W | Updated 13 minutes ago

Scattered Clouds
Scattered Clouds
61.7 °F
Feels Like 61.7 °F
N
7.0
Wind Variable Wind from West
Gusts 17.0 mph

Today
High -- | Low -- °F
--% Chance of Precip.
Yesterday
High -- | Low -- °F
Precip. -- in
6:46 AM 8:21 PM
First Quarter, 55% visible
Pressure 29.86 in
Visibility 6.2 miles
Clouds Few 1500 ft
Scattered Clouds 2000 ft
Dew Point 55 °F
Humidity 79%
Rainfall 0.18 in
Snow Depth Not available.
UV 8 out of 12
Pollen Not available.
Air Quality Not available.
Flu Activity Not available.
METAR LPBJ 261100Z 29011KT 9999 FEW015 SCT020 17/11 Q1011

More Conditions Fewer Conditions

Pressure 29.86 in
Visibility 6.2 miles
Clouds Few 1500 ft
Scattered Clouds 2000 ft
Dew Point 55 °F
Humidity 79%
Rainfall 0.18 in
Snow Depth Not available.
UV 8 out of 12
Pollen Not available.
Air Quality Not available.
Flu Activity Not available.
METAR LPBJ 261100Z 29011KT 9999 FEW015 SCT020 17/11 Q1011

More Conditions Fewer Conditions

10-Day Weather Forecast

Almanac

Astronomy

Apr. 26, 2015 Rise Set
Actual Time
Civil Twilight
Nautical Twilight
Astronomical Twilight
Moon
Length of Visible Light
Length of Day
Tomorrow will be .
, % of the Moon is Illuminated

Today's Extremes

Country Highs Country Lows

Community

WunderPhotos

Upload Photos

1,816,964 photos uploaded!

WunderBlogs® & News

Nearby

Air Quality

  Air Quality AQ Index Pollutant
Not available.

Snow Depth

Station Depth Elevation

Earthquake Activity

City Distance Mag. Time & Date
Minimum magnitude displayed is 2.5.

Coastal Water Temperatures

Place Temperature

Stations

Nearby Weather Stations

Station Location Temp. Windchill Dew Point Humidity Wind Precip. Elev Updated Type